Time;durP1;ratioP1;P1;durP2;ratioP2;P2;SDS_P1;SDS_P2;PMS_P1;PMS_P2;Temp;Humidity;BMP_temperature;BMP_pressure;BME280_temperature;BME280_humidity;BME280_pressure;Samples;Min_cycle;Max_cycle;Signal;HPM_P1;HPM_P2
2023/03/14 00:01:57;;;;;;;;;;;;;;;;;;4230514;28;19939;-51
2023/03/14 00:03:59;;;;;;;;;;;;;;;;;;4223393;28;19924;-52
2023/03/14 00:06:00;;;;;;;;;;;;;;;;;;4224432;28;19916;-52
2023/03/14 00:08:01;;;;;;;;;;;;;;;;;;4230501;28;20423;-52
2023/03/14 00:10:04;;;;;;;;;;;;;;;;;;4216963;28;19916;-49
2023/03/14 00:12:04;;;;;;;;;;;;;;;;;;4230305;28;19969;-50
2023/03/14 00:14:05;;;;;;;;;;;;;;;;;;4221111;28;19978;-49
2023/03/14 00:16:07;;;;;;;;;;;;;;;;;;4226115;28;20274;-51
2023/03/14 00:18:08;;;;;;;;;;;;;;;;;;4228309;28;19916;-51
2023/03/14 00:20:09;;;;;;;;;;;;;;;;;;4219196;28;19922;-53
2023/03/14 00:22:11;;;;;;;;;;;;;;;;;;4230496;28;19976;-48
2023/03/14 00:24:12;;;;;;;;;;;;;;;;;;4212476;28;19916;-48
2023/03/14 00:26:13;;;;;;;;;;;;;;;;;;4229892;28;19968;-48
2023/03/14 00:28:14;;;;;;;;;;;;;;;;;;4208263;28;20479;-49
2023/03/14 00:30:15;;;;;;;;;;;;;;;;;;4213585;28;19974;-47
2023/03/14 00:32:16;;;;;;;;;;;;;;;;;;4205604;28;19927;-48
2023/03/14 00:34:17;;;;;;;;;;;;;;;;;;4216591;28;19923;-52
2023/03/14 00:36:20;;;;;;;;;;;;;;;;;;4212803;28;19916;-49
2023/03/14 00:38:21;;;;;;;;;;;;;;;;;;4220230;28;19973;-47
2023/03/14 00:40:22;;;;;;;;;;;;;;;;;;4220620;28;19970;-47
2023/03/14 00:42:23;;;;;;;;;;;;;;;;;;4226155;28;19945;-49
2023/03/14 00:44:25;;;;;;;;;;;;;;;;;;4227933;28;19924;-48
2023/03/14 00:46:26;;;;;;;;;;;;;;;;;;4218203;28;19919;-48
2023/03/14 00:48:28;;;;;;;;;;;;;;;;;;4230039;28;20428;-48
2023/03/14 00:50:29;;;;;;;;;;;;;;;;;;4218635;28;19924;-47
2023/03/14 00:52:30;;;;;;;;;;;;;;;;;;4226964;28;19961;-50
2023/03/14 00:54:31;;;;;;;;;;;;;;;;;;4213391;28;19970;-48
2023/03/14 00:56:33;;;;;;;;;;;;;;;;;;4211381;28;19916;-48
2023/03/14 00:58:34;;;;;;;;;;;;;;;;;;4205852;28;20264;-52
2023/03/14 01:00:35;;;;;;;;;;;;;;;;;;4229722;28;19915;-50
2023/03/14 01:02:36;;;;;;;;;;;;;;;;;;4229400;28;19916;-49
2023/03/14 01:04:39;;;;;;;;;;;;;;;;;;4223002;28;19962;-51
2023/03/14 01:06:40;;;;;;;;;;;;;;;;;;4212912;28;19965;-51
2023/03/14 01:08:41;;;;;;;;;;;;;;;;;;4226142;28;19940;-52
2023/03/14 01:10:42;;;;;;;;;;;;;;;;;;4229539;28;20378;-49
2023/03/14 01:12:43;;;;;;;;;;;;;;;;;;4224562;28;19915;-50
2023/03/14 01:14:44;;;;;;;;;;;;;;;;;;4221612;28;19977;-52
2023/03/14 01:16:45;;;;;;;;;;;;;;;;;;4199748;28;19920;-49
2023/03/14 01:18:47;;;;;;;;;;;;;;;;;;4214049;28;19916;-51
2023/03/14 01:20:48;;;;;;;;;;;;;;;;;;4229888;28;20045;-49
2023/03/14 01:22:49;;;;;;;;;;;;;;;;;;4222257;28;19977;-49
2023/03/14 01:24:50;;;;;;;;;;;;;;;;;;4223738;28;19915;-52
2023/03/14 01:26:51;;;;;;;;;;;;;;;;;;4228639;28;20030;-49
2023/03/14 01:28:52;;;;;;;;;;;;;;;;;;4216248;28;19919;-54
2023/03/14 01:30:54;;;;;;;;;;;;;;;;;;4223743;28;19942;-51
2023/03/14 01:32:55;;;;;;;;;;;;;;;;;;4204061;28;19961;-52
2023/03/14 01:34:56;;;;;;;;;;;;;;;;;;4229791;28;20370;-52
2023/03/14 01:36:57;;;;;;;;;;;;;;;;;;4195569;28;19931;-50
2023/03/14 01:38:58;;;;;;;;;;;;;;;;;;4216861;28;19957;-53
2023/03/14 01:41:00;;;;;;;;;;;;;;;;;;4228632;28;19924;-49
2023/03/14 01:43:01;;;;;;;;;;;;;;;;;;4228435;28;19919;-50
2023/03/14 01:45:01;;;;;;;;;;;;;;;;;;4180873;28;19960;-50
2023/03/14 01:47:03;;;;;;;;;;;;;;;;;;4211025;28;19957;-51
2023/03/14 01:49:04;;;;;;;;;;;;;;;;;;4211435;28;19922;-47
2023/03/14 01:51:06;;;;;;;;;;;;;;;;;;4211635;28;19990;-49
2023/03/14 01:53:07;;;;;;;;;;;;;;;;;;4216106;28;19939;-52
2023/03/14 01:55:08;;;;;;;;;;;;;;;;;;4195101;28;19917;-51
2023/03/14 01:57:10;;;;;;;;;;;;;;;;;;4201023;28;19920;-47
2023/03/14 01:59:11;;;;;;;;;;;;;;;;;;4219076;28;20338;-52
2023/03/14 02:01:12;;;;;;;;;;;;;;;;;;4194490;28;19955;-48
2023/03/14 02:03:13;;;;;;;;;;;;;;;;;;4226372;28;19923;-50
2023/03/14 02:05:14;;;;;;;;;;;;;;;;;;4199911;28;19920;-50
2023/03/14 02:07:16;;;;;;;;;;;;;;;;;;4203289;28;19994;-52
2023/03/14 02:09:25;;;;;;;;;;;;;;;;;;4210492;28;19946;-50
2023/03/14 02:11:26;;;;;;;;;;;;;;;;;;4216201;28;19998;-49
2023/03/14 02:13:40;;;;;;;;;;;;;;;;;;4214577;28;19916;-47
2023/03/14 02:16:00;;;;;;;;;;;;;;;;;;4232697;28;19916;-50
2023/03/14 02:18:19;;;;;;;;;;;;;;;;;;4226825;28;19919;-48
2023/03/14 02:20:39;;;;;;;;;;;;;;;;;;4226127;28;20436;-49
2023/03/14 02:22:40;;;;;;;;;;;;;;;;;;4200578;28;19917;-50
2023/03/14 02:24:43;;;;;;;;;;;;;;;;;;4200647;28;19974;-49
2023/03/14 02:26:46;;;;;;;;;;;;;;;;;;4214360;28;19920;-47
2023/03/14 02:28:48;;;;;;;;;;;;;;;;;;4215519;28;19916;-47
2023/03/14 02:30:49;;;;;;;;;;;;;;;;;;4227593;28;19977;-47
2023/03/14 02:32:51;;;;;;;;;;;;;;;;;;4212705;28;19923;-47
2023/03/14 02:34:52;;;;;;;;;;;;;;;;;;4232035;28;19915;-48
2023/03/14 02:36:53;;;;;;;;;;;;;;;;;;4213951;28;20062;-48
2023/03/14 02:38:54;;;;;;;;;;;;;;;;;;4231856;28;19960;-52
2023/03/14 02:40:55;;;;;;;;;;;;;;;;;;4230528;28;19948;-47
2023/03/14 02:42:57;;;;;;;;;;;;;;;;;;4209469;28;19920;-47
2023/03/14 02:44:59;;;;;;;;;;;;;;;;;;4221682;28;20295;-53
2023/03/14 02:47:00;;;;;;;;;;;;;;;;;;4231326;28;19916;-52
2023/03/14 02:49:01;;;;;;;;;;;;;;;;;;4217705;28;20374;-50
2023/03/14 02:51:03;;;;;;;;;;;;;;;;;;4231870;28;19915;-50
2023/03/14 02:53:04;;;;;;;;;;;;;;;;;;4197158;28;19920;-52
2023/03/14 02:55:05;;;;;;;;;;;;;;;;;;4214036;28;20379;-50
2023/03/14 02:57:07;;;;;;;;;;;;;;;;;;4200744;28;19917;-51
2023/03/14 02:59:09;;;;;;;;;;;;;;;;;;4213631;28;19915;-53
2023/03/14 03:01:29;;;;;;;;;;;;;;;;;;4196447;28;20390;-50
2023/03/14 03:03:30;;;;;;;;;;;;;;;;;;4226653;28;19915;-52
2023/03/14 03:05:31;;;;;;;;;;;;;;;;;;4211840;28;20042;-48
2023/03/14 03:07:32;;;;;;;;;;;;;;;;;;4218927;28;20397;-51
2023/03/14 03:09:33;;;;;;;;;;;;;;;;;;4229700;28;20386;-50
2023/03/14 03:11:35;;;;;;;;;;;;;;;;;;4221119;28;20316;-50
2023/03/14 03:13:36;;;;;;;;;;;;;;;;;;4216745;28;19977;-47
2023/03/14 03:15:39;;;;;;;;;;;;;;;;;;4217035;28;19916;-48
2023/03/14 03:17:40;;;;;;;;;;;;;;;;;;4229841;28;20356;-49
2023/03/14 03:19:41;;;;;;;;;;;;;;;;;;4229530;28;19923;-47
2023/03/14 03:21:45;;;;;;;;;;;;;;;;;;4247154;27;20353;-48
2023/03/14 03:23:47;;;;;;;;;;;;;;;;;;4216425;28;19923;-53
2023/03/14 03:25:48;;;;;;;;;;;;;;;;;;4223987;28;19920;-52
2023/03/14 03:27:49;;;;;;;;;;;;;;;;;;4222863;28;19930;-53
2023/03/14 03:29:52;;;;;;;;;;;;;;;;;;4230159;28;19922;-53
2023/03/14 03:31:53;;;;;;;;;;;;;;;;;;4231506;27;19962;-53
2023/03/14 03:33:54;;;;;;;;;;;;;;;;;;4230150;28;19960;-53
2023/03/14 03:35:55;;;;;;;;;;;;;;;;;;4230235;28;19916;-53
2023/03/14 03:38:02;;;;;;;;;;;;;;;;;;4229957;28;19953;-53
2023/03/14 03:40:06;;;;;;;;;;;;;;;;;;4229621;28;19944;-50
2023/03/14 03:42:08;;;;;;;;;;;;;;;;;;4247025;27;19945;-53
2023/03/14 03:44:09;;;;;;;;;;;;;;;;;;4248018;27;19972;-52
2023/03/14 03:46:11;;;;;;;;;;;;;;;;;;4217855;28;19966;-53
2023/03/14 03:48:12;;;;;;;;;;;;;;;;;;4214113;28;19920;-53
2023/03/14 03:50:13;;;;;;;;;;;;;;;;;;4229887;28;19959;-49
2023/03/14 03:52:14;;;;;;;;;;;;;;;;;;4231012;28;19969;-48
2023/03/14 03:54:15;;;;;;;;;;;;;;;;;;4240589;27;20490;-51
2023/03/14 03:56:16;;;;;;;;;;;;;;;;;;4229205;28;19981;-48
2023/03/14 03:58:18;;;;;;;;;;;;;;;;;;4226575;28;19945;-47
2023/03/14 04:00:19;;;;;;;;;;;;;;;;;;4230885;28;20328;-47
2023/03/14 04:02:20;;;;;;;;;;;;;;;;;;4230263;27;20311;-46
2023/03/14 04:04:22;;;;;;;;;;;;;;;;;;4225726;28;20402;-50
2023/03/14 04:06:23;;;;;;;;;;;;;;;;;;4233395;27;19973;-47
2023/03/14 04:08:25;;;;;;;;;;;;;;;;;;4246740;27;19964;-52
2023/03/14 04:10:27;;;;;;;;;;;;;;;;;;4247404;27;20443;-53
2023/03/14 04:12:38;;;;;;;;;;;;;;;;;;4246267;27;19915;-47
2023/03/14 04:14:43;;;;;;;;;;;;;;;;;;4226236;28;19916;-48
2023/03/14 04:16:49;;;;;;;;;;;;;;;;;;4236043;27;20386;-53
2023/03/14 04:18:53;;;;;;;;;;;;;;;;;;4229706;28;19973;-51
2023/03/14 04:20:56;;;;;;;;;;;;;;;;;;4215387;28;19916;-49
2023/03/14 04:23:01;;;;;;;;;;;;;;;;;;4212726;28;19928;-48
2023/03/14 04:25:03;;;;;;;;;;;;;;;;;;4237559;27;20279;-52
2023/03/14 04:27:06;;;;;;;;;;;;;;;;;;4229180;28;19919;-47
2023/03/14 04:29:08;;;;;;;;;;;;;;;;;;4229175;28;19919;-49
2023/03/14 04:31:09;;;;;;;;;;;;;;;;;;4243676;27;19919;-50
2023/03/14 04:33:12;;;;;;;;;;;;;;;;;;4235866;27;20309;-52
2023/03/14 04:35:18;;;;;;;;;;;;;;;;;;4229161;28;20390;-53
2023/03/14 04:37:19;;;;;;;;;;;;;;;;;;4229113;28;19964;-47
2023/03/14 04:39:21;;;;;;;;;;;;;;;;;;4212401;28;19920;-51
2023/03/14 04:41:28;;;;;;;;;;;;;;;;;;4212184;28;19981;-48
2023/03/14 04:43:29;;;;;;;;;;;;;;;;;;4222923;28;19920;-49
2023/03/14 04:45:36;;;;;;;;;;;;;;;;;;4228707;28;20330;-50
2023/03/14 04:47:40;;;;;;;;;;;;;;;;;;4228456;28;20042;-52
2023/03/14 04:49:42;;;;;;;;;;;;;;;;;;4204809;28;20038;-49
2023/03/14 04:51:45;;;;;;;;;;;;;;;;;;4223222;28;19969;-47
2023/03/14 04:53:46;;;;;;;;;;;;;;;;;;4244345;27;19915;-47
2023/03/14 04:55:48;;;;;;;;;;;;;;;;;;4242951;27;20379;-51
2023/03/14 04:57:50;;;;;;;;;;;;;;;;;;4233455;27;19948;-48
2023/03/14 04:59:50;;;;;;;;;;;;;;;;;;4240060;27;19987;-47
2023/03/14 05:02:11;;;;;;;;;;;;;;;;;;4230580;27;19985;-51
2023/03/14 05:04:21;;;;;;;;;;;;;;;;;;4218562;28;19954;-49
2023/03/14 05:06:29;;;;;;;;;;;;;;;;;;4228709;28;20297;-49
2023/03/14 05:08:49;;;;;;;;;;;;;;;;;;4228498;28;19916;-51
2023/03/14 05:11:08;;;;;;;;;;;;;;;;;;4229748;28;19915;-48
2023/03/14 05:13:36;;;;;;;;;;;;;;;;;;4228133;28;19916;-49
2023/03/14 05:16:01;;;;;;;;;;;;;;;;;;4221061;28;19924;-51
2023/03/14 05:18:16;;;;;;;;;;;;;;;;;;4241825;28;19922;-48
2023/03/14 05:20:36;;;;;;;;;;;;;;;;;;4241897;28;19968;-49
2023/03/14 05:22:57;;;;;;;;;;;;;;;;;;4222849;28;19915;-51
2023/03/14 05:25:21;;;;;;;;;;;;;;;;;;4222550;28;19931;-50
2023/03/14 05:27:44;;;;;;;;;;;;;;;;;;4211925;28;20001;-53
2023/03/14 05:30:08;;;;;;;;;;;;;;;;;;4186518;28;20432;-50
2023/03/14 05:32:29;;;;;;;;;;;;;;;;;;4190048;28;19920;-52
2023/03/14 05:34:33;;;;;;;;;;;;;;;;;;4212871;28;20374;-49
2023/03/14 05:36:48;;;;;;;;;;;;;;;;;;4195028;28;19948;-53
2023/03/14 05:39:12;;;;;;;;;;;;;;;;;;4212805;28;19919;-52
2023/03/14 05:41:44;;;;;;;;;;;;;;;;;;4191972;28;19963;-49
2023/03/14 05:44:01;;;;;;;;;;;;;;;;;;4188835;28;19924;-53
2023/03/14 05:46:21;;;;;;;;;;;;;;;;;;4215236;28;19916;-52
2023/03/14 05:48:36;;;;;;;;;;;;;;;;;;4210549;28;19939;-51
2023/03/14 05:51:07;;;;;;;;;;;;;;;;;;4194279;28;19962;-51
2023/03/14 05:53:17;;;;;;;;;;;;;;;;;;4181557;28;19967;-49
2023/03/14 05:55:18;;;;;;;;;;;;;;;;;;4199145;28;19920;-46
2023/03/14 05:57:38;;;;;;;;;;;;;;;;;;4199290;28;19927;-52
2023/03/14 05:59:49;;;;;;;;;;;;;;;;;;4181511;28;19946;-47
2023/03/14 06:02:13;;;;;;;;;;;;;;;;;;4203459;28;20337;-49
2023/03/14 06:04:24;;;;;;;;;;;;;;;;;;4192679;28;20453;-51
2023/03/14 06:06:29;;;;;;;;;;;;;;;;;;4195609;28;19971;-50
2023/03/14 06:08:31;;;;;;;;;;;;;;;;;;4196007;28;19920;-50
2023/03/14 06:10:32;;;;;;;;;;;;;;;;;;4185348;28;19924;-48
2023/03/14 06:12:33;;;;;;;;;;;;;;;;;;4205754;28;19920;-48
2023/03/14 06:14:35;;;;;;;;;;;;;;;;;;4198733;28;19971;-51
2023/03/14 06:16:36;;;;;;;;;;;;;;;;;;4189008;28;19920;-50
2023/03/14 06:18:38;;;;;;;;;;;;;;;;;;4188384;28;19920;-49
2023/03/14 06:20:41;;;;;;;;;;;;;;;;;;4195555;28;19952;-51
2023/03/14 06:22:46;;;;;;;;;;;;;;;;;;4195261;28;20552;-49
2023/03/14 06:24:47;;;;;;;;;;;;;;;;;;4194896;28;20379;-49
2023/03/14 06:26:50;;;;;;;;;;;;;;;;;;4195569;28;19920;-50
2023/03/14 06:28:53;;;;;;;;;;;;;;;;;;4228719;28;19969;-48
2023/03/14 06:30:54;;;;;;;;;;;;;;;;;;4211652;28;19953;-46
2023/03/14 06:32:55;;;;;;;;;;;;;;;;;;4211750;28;19916;-51
2023/03/14 06:35:00;;;;;;;;;;;;;;;;;;4212102;28;19964;-50
2023/03/14 06:37:01;;;;;;;;;;;;;;;;;;4211394;28;19947;-49
2023/03/14 06:39:03;;;;;;;;;;;;;;;;;;4226911;28;19920;-49
2023/03/14 06:41:06;;;;;;;;;;;;;;;;;;4216976;28;19916;-49
2023/03/14 06:43:12;;;;;;;;;;;;;;;;;;4203265;28;19920;-47
2023/03/14 06:45:15;;;;;;;;;;;;;;;;;;4224347;28;19923;-51
2023/03/14 06:47:17;;;;;;;;;;;;;;;;;;4178963;28;19920;-53
2023/03/14 06:49:19;;;;;;;;;;;;;;;;;;4211499;28;19920;-48
2023/03/14 06:51:22;;;;;;;;;;;;;;;;;;4203400;28;19923;-50
2023/03/14 06:53:23;;;;;;;;;;;;;;;;;;4211792;28;19924;-49
2023/03/14 06:55:25;;;;;;;;;;;;;;;;;;4195439;28;19996;-50
2023/03/14 06:57:28;;;;;;;;;;;;;;;;;;4199157;28;19962;-48
2023/03/14 06:59:29;;;;;;;;;;;;;;;;;;4210954;28;19924;-50
2023/03/14 07:01:30;;;;;;;;;;;;;;;;;;4201882;28;19970;-48
2023/03/14 07:03:39;;;;;;;;;;;;;;;;;;4203139;28;19920;-48
2023/03/14 07:05:40;;;;;;;;;;;;;;;;;;4187911;28;19950;-49
2023/03/14 07:07:42;;;;;;;;;;;;;;;;;;4191399;28;19924;-49
2023/03/14 07:09:43;;;;;;;;;;;;;;;;;;4208338;28;20386;-48
2023/03/14 07:11:45;;;;;;;;;;;;;;;;;;4191241;28;20244;-48
2023/03/14 07:13:46;;;;;;;;;;;;;;;;;;4194115;28;20450;-50
2023/03/14 07:15:47;;;;;;;;;;;;;;;;;;4196716;28;20088;-49
2023/03/14 07:17:49;;;;;;;;;;;;;;;;;;4200925;28;19928;-51
2023/03/14 07:19:49;;;;;;;;;;;;;;;;;;4202111;28;20011;-49
2023/03/14 07:21:51;;;;;;;;;;;;;;;;;;4196763;28;19924;-50
2023/03/14 07:23:56;;;;;;;;;;;;;;;;;;4197641;28;19970;-49
2023/03/14 07:25:56;;;;;;;;;;;;;;;;;;4196766;28;19920;-44
2023/03/14 07:28:00;;;;;;;;;;;;;;;;;;4195361;28;19920;-51
2023/03/14 07:30:01;;;;;;;;;;;;;;;;;;4196715;28;20357;-50
2023/03/14 07:32:02;;;;;;;;;;;;;;;;;;4194960;28;19924;-49
2023/03/14 07:34:03;;;;;;;;;;;;;;;;;;4194561;28;19924;-51
2023/03/14 07:36:07;;;;;;;;;;;;;;;;;;4206797;28;20422;-50
2023/03/14 07:38:09;;;;;;;;;;;;;;;;;;4194138;28;19973;-48
2023/03/14 07:40:16;;;;;;;;;;;;;;;;;;4208319;28;19924;-53
2023/03/14 07:42:17;;;;;;;;;;;;;;;;;;4188696;28;19972;-50
2023/03/14 07:44:32;;;;;;;;;;;;;;;;;;4195238;28;19935;-52
2023/03/14 07:46:33;;;;;;;;;;;;;;;;;;4203314;28;20653;-49
2023/03/14 07:48:35;;;;;;;;;;;;;;;;;;4202113;27;20728;-48
2023/03/14 07:50:36;;;;;;;;;;;;;;;;;;4205843;28;19924;-52
2023/03/14 07:52:37;;;;;;;;;;;;;;;;;;4197529;28;20260;-51
2023/03/14 07:54:38;;;;;;;;;;;;;;;;;;4203770;28;19924;-49
2023/03/14 07:56:40;;;;;;;;;;;;;;;;;;4203585;28;19924;-46
2023/03/14 07:58:40;;;;;;;;;;;;;;;;;;4202767;28;19953;-52
2023/03/14 08:00:42;;;;;;;;;;;;;;;;;;4200534;28;20374;-50
2023/03/14 08:02:43;;;;;;;;;;;;;;;;;;4196151;28;19923;-51
2023/03/14 08:04:44;;;;;;;;;;;;;;;;;;4202780;27;19928;-51
2023/03/14 08:06:45;;;;;;;;;;;;;;;;;;4200387;28;19928;-46
2023/03/14 08:08:46;;;;;;;;;;;;;;;;;;4201286;28;20019;-50
2023/03/14 08:10:48;;;;;;;;;;;;;;;;;;4209597;28;19924;-48
2023/03/14 08:12:49;;;;;;;;;;;;;;;;;;4187781;28;19928;-49
2023/03/14 08:14:50;;;;;;;;;;;;;;;;;;4208408;28;19923;-49
2023/03/14 08:16:51;;;;;;;;;;;;;;;;;;4204110;28;19973;-48
2023/03/14 08:18:53;;;;;;;;;;;;;;;;;;4190508;28;19924;-49
2023/03/14 08:20:54;;;;;;;;;;;;;;;;;;4175871;28;20383;-49
2023/03/14 08:22:55;;;;;;;;;;;;;;;;;;4197426;28;19935;-52
2023/03/14 08:24:56;;;;;;;;;;;;;;;;;;4192524;28;19934;-48
2023/03/14 08:26:57;;;;;;;;;;;;;;;;;;4197709;28;20893;-49
2023/03/14 08:28:58;;;;;;;;;;;;;;;;;;4188245;28;20122;-49
2023/03/14 08:30:59;;;;;;;;;;;;;;;;;;4196363;28;20300;-45
2023/03/14 08:33:00;;;;;;;;;;;;;;;;;;4187578;28;19978;-50
2023/03/14 08:35:02;;;;;;;;;;;;;;;;;;4203994;28;19927;-48
2023/03/14 08:37:03;;;;;;;;;;;;;;;;;;4197134;28;19924;-56
2023/03/14 08:39:06;;;;;;;;;;;;;;;;;;4204100;28;19962;-52
2023/03/14 08:41:08;;;;;;;;;;;;;;;;;;4188356;28;19920;-51
2023/03/14 08:43:09;;;;;;;;;;;;;;;;;;4199917;28;20631;-51
2023/03/14 08:45:10;;;;;;;;;;;;;;;;;;4191248;28;21069;-54
2023/03/14 08:47:11;;;;;;;;;;;;;;;;;;4169519;28;20051;-56
2023/03/14 08:49:14;;;;;;;;;;;;;;;;;;4177913;28;20011;-58
2023/03/14 08:51:15;;;;;;;;;;;;;;;;;;4203728;28;20910;-51
2023/03/14 08:53:16;;;;;;;;;;;;;;;;;;4202720;28;19924;-45
2023/03/14 08:55:20;;;;;;;;;;;;;;;;;;4200451;28;19924;-44
2023/03/14 08:57:21;;;;;;;;;;;;;;;;;;4205942;28;20030;-43
2023/03/14 08:59:22;;;;;;;;;;;;;;;;;;4201692;28;19924;-45
2023/03/14 09:01:25;;;;;;;;;;;;;;;;;;4191787;28;20346;-42
2023/03/14 09:03:26;;;;;;;;;;;;;;;;;;4196678;28;19924;-44
2023/03/14 09:05:27;;;;;;;;;;;;;;;;;;4199822;28;19950;-39
2023/03/14 09:07:28;;;;;;;;;;;;;;;;;;4199609;28;19923;-42
2023/03/14 09:09:32;;;;;;;;;;;;;;;;;;4201670;28;19924;-42
2023/03/14 09:11:33;;;;;;;;;;;;;;;;;;4192845;28;20340;-44
2023/03/14 09:13:35;;;;;;;;;;;;;;;;;;4209885;28;19967;-42
2023/03/14 09:15:36;;;;;;;;;;;;;;;;;;4208923;28;19919;-42
2023/03/14 09:17:37;;;;;;;;;;;;;;;;;;4202239;28;20009;-42
2023/03/14 09:19:38;;;;;;;;;;;;;;;;;;4203337;28;19927;-42
2023/03/14 09:21:40;;;;;;;;;;;;;;;;;;4200513;28;20402;-42
2023/03/14 09:23:41;;;;;;;;;;;;;;;;;;4205825;28;20010;-43
2023/03/14 09:25:42;;;;;;;;;;;;;;;;;;4201226;28;19932;-42
2023/03/14 09:27:43;;;;;;;;;;;;;;;;;;4201612;28;19927;-39
2023/03/14 09:29:44;;;;;;;;;;;;;;;;;;4198973;28;19928;-42
2023/03/14 09:31:45;;;;;;;;;;;;;;;;;;4197515;28;19977;-43
2023/03/14 09:33:46;;;;;;;;;;;;;;;;;;4197371;28;19924;-42
2023/03/14 09:35:47;;;;;;;;;;;;;;;;;;4199194;28;19920;-45
2023/03/14 09:37:49;;;;;;;;;;;;;;;;;;4196929;28;19924;-42
2023/03/14 09:39:50;;;;;;;;;;;;;;;;;;4202102;27;19941;-43
2023/03/14 09:41:51;;;;;;;;;;;;;;;;;;4204901;28;19923;-41
2023/03/14 09:43:53;;;;;;;;;;;;;;;;;;4207601;28;19924;-41
2023/03/14 09:45:54;;;;;;;;;;;;;;;;;;4200893;28;19933;-43
2023/03/14 09:47:55;;;;;;;;;;;;;;;;;;4202587;28;20647;-41
2023/03/14 09:49:56;;;;;;;;;;;;;;;;;;4198689;28;19977;-43
2023/03/14 09:51:57;;;;;;;;;;;;;;;;;;4206710;28;19919;-44
2023/03/14 09:53:58;;;;;;;;;;;;;;;;;;4195447;28;19924;-43
2023/03/14 09:55:59;;;;;;;;;;;;;;;;;;4198632;28;19928;-43
2023/03/14 09:58:00;;;;;;;;;;;;;;;;;;4200306;28;19947;-42
2023/03/14 10:00:05;;;;;;;;;;;;;;;;;;4208139;28;20116;-41
2023/03/14 10:02:07;;;;;;;;;;;;;;;;;;4203969;28;20067;-43
2023/03/14 10:04:08;;;;;;;;;;;;;;;;;;4203547;28;19977;-44
2023/03/14 10:06:09;;;;;;;;;;;;;;;;;;4204680;28;20323;-43
2023/03/14 10:08:11;;;;;;;;;;;;;;;;;;4205100;28;19932;-42
2023/03/14 10:10:12;;;;;;;;;;;;;;;;;;4202448;28;20839;-42
2023/03/14 10:12:13;;;;;;;;;;;;;;;;;;4201528;27;19920;-44
2023/03/14 10:14:19;;;;;;;;;;;;;;;;;;4208051;28;20038;-41
2023/03/14 10:16:21;;;;;;;;;;;;;;;;;;4198063;28;19920;-44
2023/03/14 10:18:22;;;;;;;;;;;;;;;;;;4204475;27;20415;-45
2023/03/14 10:20:23;;;;;;;;;;;;;;;;;;4206771;28;20414;-41
2023/03/14 10:22:24;;;;;;;;;;;;;;;;;;4203972;28;20192;-42
2023/03/14 10:24:25;;;;;;;;;;;;;;;;;;4202252;27;19979;-42
2023/03/14 10:26:26;;;;;;;;;;;;;;;;;;4204401;28;21961;-41
2023/03/14 10:28:27;;;;;;;;;;;;;;;;;;4209161;28;20010;-41
2023/03/14 10:30:28;;;;;;;;;;;;;;;;;;4190895;28;19928;-41
2023/03/14 10:32:29;;;;;;;;;;;;;;;;;;4202758;28;19923;-41
2023/03/14 10:34:30;;;;;;;;;;;;;;;;;;4208661;28;19959;-41
2023/03/14 10:36:31;;;;;;;;;;;;;;;;;;4202790;28;19927;-42
2023/03/14 10:38:32;;;;;;;;;;;;;;;;;;4201479;27;20620;-42
2023/03/14 10:40:34;;;;;;;;;;;;;;;;;;4191137;28;19932;-41
2023/03/14 10:42:34;;;;;;;;;;;;;;;;;;4203053;27;20009;-41
2023/03/14 10:44:35;;;;;;;;;;;;;;;;;;4201351;28;20112;-42
2023/03/14 10:46:37;;;;;;;;;;;;;;;;;;4197780;28;19924;-43
2023/03/14 10:48:57;;;;;;;;;;;;;;;;;;4193278;28;19928;-41
2023/03/14 10:50:58;;;;;;;;;;;;;;;;;;4197048;27;19931;-40
2023/03/14 10:52:59;;;;;;;;;;;;;;;;;;4197444;28;19934;-41
2023/03/14 10:55:00;;;;;;;;;;;;;;;;;;4200851;28;20858;-41
2023/03/14 10:57:01;;;;;;;;;;;;;;;;;;4202537;28;19939;-40
2023/03/14 10:59:02;;;;;;;;;;;;;;;;;;4196801;27;20000;-41
2023/03/14 11:01:03;;;;;;;;;;;;;;;;;;4199265;28;19928;-41
2023/03/14 11:03:05;;;;;;;;;;;;;;;;;;4194125;28;20382;-43
2023/03/14 11:05:06;;;;;;;;;;;;;;;;;;4195227;27;19924;-40
2023/03/14 11:07:08;;;;;;;;;;;;;;;;;;4202102;28;19924;-40
2023/03/14 11:09:09;;;;;;;;;;;;;;;;;;4192972;28;19920;-41
2023/03/14 11:11:10;;;;;;;;;;;;;;;;;;4195876;28;19957;-41
2023/03/14 11:13:11;;;;;;;;;;;;;;;;;;4200276;28;19920;-43
2023/03/14 11:15:12;;;;;;;;;;;;;;;;;;4197963;28;19984;-44
2023/03/14 11:17:13;;;;;;;;;;;;;;;;;;4170622;28;20632;-43
2023/03/14 11:19:14;;;;;;;;;;;;;;;;;;4203403;28;19976;-41
2023/03/14 11:21:15;;;;;;;;;;;;;;;;;;4205036;28;20046;-42
2023/03/14 11:23:16;;;;;;;;;;;;;;;;;;4208275;28;20337;-43
2023/03/14 11:25:17;;;;;;;;;;;;;;;;;;4205119;28;19924;-43
2023/03/14 11:27:18;;;;;;;;;;;;;;;;;;4204171;28;19971;-45
2023/03/14 11:29:19;;;;;;;;;;;;;;;;;;4212979;28;19992;-41
2023/03/14 11:31:20;;;;;;;;;;;;;;;;;;4198385;28;20329;-44
2023/03/14 11:33:21;;;;;;;;;;;;;;;;;;4206836;28;20090;-45
2023/03/14 11:35:22;;;;;;;;;;;;;;;;;;4204104;28;19919;-41
2023/03/14 11:37:23;;;;;;;;;;;;;;;;;;4191750;28;19920;-44
2023/03/14 11:39:24;;;;;;;;;;;;;;;;;;4206975;28;19920;-42
2023/03/14 11:41:25;;;;;;;;;;;;;;;;;;4187554;28;19919;-41
2023/03/14 11:43:27;;;;;;;;;;;;;;;;;;4204324;28;20027;-42
2023/03/14 11:45:28;;;;;;;;;;;;;;;;;;4199403;27;19928;-41
2023/03/14 11:47:29;;;;;;;;;;;;;;;;;;4194434;28;20042;-42
2023/03/14 11:49:30;;;;;;;;;;;;;;;;;;4193721;28;19982;-44
2023/03/14 11:51:31;;;;;;;;;;;;;;;;;;4200958;28;19930;-41
2023/03/14 11:53:31;;;;;;;;;;;;;;;;;;4200483;28;20049;-41
2023/03/14 11:55:33;;;;;;;;;;;;;;;;;;4176733;28;19923;-41
2023/03/14 11:57:35;;;;;;;;;;;;;;;;;;4194398;28;19950;-41
2023/03/14 11:59:36;;;;;;;;;;;;;;;;;;4202492;28;20382;-41
2023/03/14 12:01:37;;;;;;;;;;;;;;;;;;4203169;28;19920;-41
2023/03/14 12:03:38;;;;;;;;;;;;;;;;;;4205779;28;19924;-41
2023/03/14 12:05:39;;;;;;;;;;;;;;;;;;4202239;27;20029;-41
2023/03/14 12:07:40;;;;;;;;;;;;;;;;;;4198741;28;19985;-42
2023/03/14 12:09:42;;;;;;;;;;;;;;;;;;4202562;28;19997;-40
2023/03/14 12:11:43;;;;;;;;;;;;;;;;;;4209318;28;20310;-41
2023/03/14 12:13:44;;;;;;;;;;;;;;;;;;4200080;28;20204;-42
2023/03/14 12:15:45;;;;;;;;;;;;;;;;;;4200915;28;20235;-41
2023/03/14 12:17:47;;;;;;;;;;;;;;;;;;4195664;28;19924;-42
2023/03/14 12:19:48;;;;;;;;;;;;;;;;;;4208940;28;20045;-42
2023/03/14 12:21:49;;;;;;;;;;;;;;;;;;4203360;28;20318;-41
2023/03/14 12:23:50;;;;;;;;;;;;;;;;;;4208379;28;19944;-41
2023/03/14 12:25:52;;;;;;;;;;;;;;;;;;4199195;28;20389;-42
2023/03/14 12:27:53;;;;;;;;;;;;;;;;;;4179630;28;19920;-43
2023/03/14 12:29:53;;;;;;;;;;;;;;;;;;4187074;28;20299;-41
2023/03/14 12:31:54;;;;;;;;;;;;;;;;;;4202634;28;19931;-41
2023/03/14 12:33:56;;;;;;;;;;;;;;;;;;4206335;28;19924;-41
2023/03/14 12:35:56;;;;;;;;;;;;;;;;;;4205360;28;19921;-42
2023/03/14 12:37:57;;;;;;;;;;;;;;;;;;4200547;28;19924;-43
2023/03/14 12:39:59;;;;;;;;;;;;;;;;;;4207051;28;19977;-41
2023/03/14 12:42:00;;;;;;;;;;;;;;;;;;4209190;28;20001;-43
2023/03/14 12:44:01;;;;;;;;;;;;;;;;;;4205236;28;19969;-41
2023/03/14 12:46:02;;;;;;;;;;;;;;;;;;4209500;28;19976;-41
2023/03/14 12:48:03;;;;;;;;;;;;;;;;;;4196499;28;19928;-41
2023/03/14 12:50:04;;;;;;;;;;;;;;;;;;4195847;28;20483;-43
2023/03/14 12:52:05;;;;;;;;;;;;;;;;;;4198453;28;21237;-42
2023/03/14 12:54:06;;;;;;;;;;;;;;;;;;4205538;28;19923;-44
2023/03/14 12:56:07;;;;;;;;;;;;;;;;;;4206393;28;20022;-41
2023/03/14 12:58:08;;;;;;;;;;;;;;;;;;4203208;28;19927;-41
2023/03/14 13:00:10;;;;;;;;;;;;;;;;;;4201458;28;19993;-41
2023/03/14 13:02:11;;;;;;;;;;;;;;;;;;4202010;28;19923;-41
2023/03/14 13:04:12;;;;;;;;;;;;;;;;;;4184415;28;19925;-41
2023/03/14 13:06:13;;;;;;;;;;;;;;;;;;4193127;28;19924;-40
2023/03/14 13:08:14;;;;;;;;;;;;;;;;;;4201276;28;21067;-41
2023/03/14 13:10:15;;;;;;;;;;;;;;;;;;4206558;28;19930;-42
2023/03/14 13:12:17;;;;;;;;;;;;;;;;;;4207354;28;19924;-41
2023/03/14 13:14:17;;;;;;;;;;;;;;;;;;4202792;28;20402;-42
2023/03/14 13:16:18;;;;;;;;;;;;;;;;;;4206408;28;19919;-40
2023/03/14 13:18:20;;;;;;;;;;;;;;;;;;4204912;28;20495;-41
2023/03/14 13:20:22;;;;;;;;;;;;;;;;;;4205529;28;19920;-41
2023/03/14 13:22:22;;;;;;;;;;;;;;;;;;4206594;28;20384;-42
2023/03/14 13:24:24;;;;;;;;;;;;;;;;;;4187048;28;20397;-43
2023/03/14 13:26:25;;;;;;;;;;;;;;;;;;4189896;28;19924;-42
2023/03/14 13:28:26;;;;;;;;;;;;;;;;;;4201918;28;19924;-41
2023/03/14 13:30:27;;;;;;;;;;;;;;;;;;4206786;28;19924;-43
2023/03/14 13:32:28;;;;;;;;;;;;;;;;;;4198610;28;19962;-42
2023/03/14 13:34:29;;;;;;;;;;;;;;;;;;4204181;28;19927;-43
2023/03/14 13:36:30;;;;;;;;;;;;;;;;;;4201432;28;19923;-40
2023/03/14 13:38:31;;;;;;;;;;;;;;;;;;4198530;28;19977;-42
2023/03/14 13:40:32;;;;;;;;;;;;;;;;;;4203088;28;19923;-40
2023/03/14 13:42:33;;;;;;;;;;;;;;;;;;4197991;28;19935;-40
2023/03/14 13:44:34;;;;;;;;;;;;;;;;;;4209337;28;19924;-44
2023/03/14 13:46:36;;;;;;;;;;;;;;;;;;4199917;28;20225;-41
2023/03/14 13:48:37;;;;;;;;;;;;;;;;;;4203297;28;19924;-43
2023/03/14 13:50:38;;;;;;;;;;;;;;;;;;4200125;28;19924;-41
2023/03/14 13:52:39;;;;;;;;;;;;;;;;;;4201999;28;19924;-42
2023/03/14 13:54:40;;;;;;;;;;;;;;;;;;4200052;28;19962;-43
2023/03/14 13:56:41;;;;;;;;;;;;;;;;;;4204476;28;20338;-41
2023/03/14 13:58:43;;;;;;;;;;;;;;;;;;4199761;28;20244;-41
2023/03/14 14:00:44;;;;;;;;;;;;;;;;;;4182616;28;19924;-42